createdAt,value
2023-10-06T18:29:51.463Z,76.75
2023-10-06T18:32:18.447Z,76.79
2023-10-06T18:34:45.435Z,76.37
2023-10-06T18:37:12.826Z,76.01
2023-10-06T18:39:40.270Z,75.08
2023-10-06T18:42:08.524Z,75.34
2023-10-06T18:44:35.467Z,74.25
2023-10-06T18:47:02.293Z,74.22
2023-10-06T18:49:29.068Z,73.98
2023-10-06T18:51:55.911Z,73.80
2023-10-06T18:54:24.320Z,73.19
2023-10-06T18:56:51.249Z,73.16
2023-10-06T18:59:18.101Z,73.28
2023-10-06T19:01:45.375Z,72.68
2023-10-06T19:04:12.390Z,72.85
2023-10-06T19:06:41.547Z,72.50
2023-10-06T19:09:11.506Z,72.39
2023-10-06T19:11:38.910Z,72.63
2023-10-06T19:14:06.251Z,72.64
2023-10-06T19:16:33.435Z,72.34
2023-10-06T19:19:01.166Z,72.34
2023-10-06T19:21:28.353Z,72.40
2023-10-06T19:23:55.836Z,72.11
2023-10-06T19:26:23.488Z,72.25
2023-10-06T19:28:50.821Z,72.65
2023-10-06T19:31:18.069Z,72.54
2023-10-06T19:33:52.246Z,72.52
2023-10-06T19:36:21.231Z,72.74
2023-10-06T19:38:49.048Z,73.06
2023-10-06T19:41:16.492Z,73.02
2023-10-06T19:43:43.644Z,73.08
2023-10-06T19:46:11.729Z,72.91
2023-10-06T19:48:39.913Z,73.01
2023-10-06T19:51:10.320Z,73.01
2023-10-06T19:53:37.429Z,73.01
2023-10-06T19:56:04.963Z,73.21
2023-10-06T19:58:32.782Z,73.16
2023-10-06T20:01:00.103Z,73.05
2023-10-06T20:03:27.610Z,73.31
2023-10-06T20:05:57.268Z,73.12
2023-10-06T20:08:24.866Z,73.34
2023-10-06T20:10:56.113Z,72.94
2023-10-06T20:13:28.010Z,72.97
2023-10-06T20:15:54.938Z,73.21
2023-10-06T20:18:22.014Z,73.22
2023-10-06T20:20:48.950Z,73.41
2023-10-06T20:23:15.833Z,73.26
2023-10-06T20:25:42.878Z,73.29
2023-10-06T20:28:11.114Z,73.20
2023-10-06T20:30:41.397Z,73.18
2023-10-06T20:33:08.271Z,73.06
2023-10-06T20:35:35.913Z,73.22
2023-10-06T20:38:04.603Z,73.08
2023-10-06T20:40:34.033Z,72.99
2023-10-06T20:43:07.888Z,73.14
2023-10-06T20:45:34.931Z,72.89
2023-10-06T20:48:10.858Z,72.98
2023-10-06T20:50:39.892Z,72.85
2023-10-06T20:53:08.627Z,73.14
2023-10-06T20:55:36.971Z,73.04
2023-10-06T20:58:03.985Z,73.08
2023-10-06T21:00:31.045Z,73.06
2023-10-06T21:02:58.933Z,73.02
2023-10-06T21:05:26.468Z,72.82
2023-10-06T21:07:53.670Z,72.87
2023-10-06T21:10:21.743Z,72.96
2023-10-06T21:12:48.727Z,73.35
2023-10-06T21:15:16.069Z,73.34
2023-10-06T21:17:43.810Z,73.58
2023-10-06T21:20:13.626Z,73.44
2023-10-06T21:22:41.268Z,73.70
2023-10-06T21:25:18.282Z,73.95
2023-10-06T21:27:46.870Z,73.93
2023-10-06T21:30:17.245Z,73.96
2023-10-06T21:32:45.735Z,73.76
2023-10-06T21:35:16.182Z,73.82
2023-10-06T21:37:43.814Z,73.94
2023-10-06T21:40:13.147Z,74.00
2023-10-06T21:42:41.855Z,74.06
2023-10-06T21:45:10.041Z,73.91
2023-10-06T21:47:37.148Z,73.95
2023-10-06T21:50:04.641Z,73.86
2023-10-06T21:52:32.383Z,73.87
2023-10-06T21:54:59.797Z,73.92
2023-10-06T21:57:31.596Z,74.06
2023-10-06T21:59:58.755Z,74.20
2023-10-06T22:02:25.843Z,74.37
2023-10-06T22:04:54.543Z,75.04
2023-10-06T22:07:22.238Z,74.92
2023-10-06T22:09:49.067Z,75.09
2023-10-06T22:12:16.548Z,75.06
2023-10-06T22:14:43.783Z,75.01
2023-10-06T22:17:13.814Z,75.05
2023-10-06T22:19:42.101Z,75.00
2023-10-06T22:22:09.190Z,75.10
2023-10-06T22:24:35.970Z,75.30
2023-10-06T22:27:08.106Z,75.51
2023-10-06T22:29:35.648Z,75.70
2023-10-06T22:32:02.684Z,75.63
2023-10-06T22:34:29.612Z,75.67
2023-10-06T22:37:01.683Z,75.68
2023-10-06T22:39:32.022Z,75.78
2023-10-06T22:41:58.802Z,75.75
2023-10-06T22:44:25.623Z,75.81
2023-10-06T22:46:55.226Z,75.74
2023-10-06T22:49:22.638Z,75.88
2023-10-06T22:51:50.873Z,75.78
2023-10-06T22:54:18.655Z,75.98
2023-10-06T22:56:45.562Z,75.94
2023-10-06T22:59:12.578Z,76.12
2023-10-06T23:01:39.639Z,76.17
2023-10-06T23:04:07.994Z,75.96
2023-10-06T23:06:34.942Z,76.08
2023-10-06T23:09:02.393Z,76.10
2023-10-06T23:11:29.361Z,76.18
2023-10-06T23:13:56.195Z,76.34
2023-10-06T23:16:23.350Z,76.36
2023-10-06T23:18:50.806Z,76.63
2023-10-06T23:21:17.615Z,76.62
2023-10-06T23:23:46.518Z,76.67
2023-10-06T23:26:14.178Z,76.83
2023-10-06T23:28:41.128Z,76.96
2023-10-06T23:31:08.040Z,76.98
2023-10-06T23:33:35.259Z,77.18
2023-10-06T23:36:03.259Z,77.06
2023-10-06T23:38:30.564Z,77.15
2023-10-06T23:41:02.266Z,77.43
2023-10-06T23:43:31.359Z,77.56
2023-10-06T23:45:58.706Z,77.89
2023-10-06T23:48:29.697Z,77.71
2023-10-06T23:51:10.275Z,77.82
2023-10-06T23:53:38.046Z,77.96
2023-10-06T23:56:23.854Z,77.95
2023-10-06T23:58:54.280Z,77.90
